sensor_id;sensor_type;location;lat;lon;timestamp;P1;durP1;ratioP1;P2;durP2;ratioP2
10471;SDS011;5283;48.876;8.962;2023-04-03T00:00:37;2.43;;;2.07;;
10471;SDS011;5283;48.876;8.962;2023-04-03T00:03:04;2.87;;;2.03;;
10471;SDS011;5283;48.876;8.962;2023-04-03T00:05:31;2.77;;;2.40;;
10471;SDS011;5283;48.876;8.962;2023-04-03T00:07:58;2.83;;;2.00;;
10471;SDS011;5283;48.876;8.962;2023-04-03T00:10:24;2.30;;;2.10;;
10471;SDS011;5283;48.876;8.962;2023-04-03T00:12:51;2.83;;;2.10;;
10471;SDS011;5283;48.876;8.962;2023-04-03T00:15:18;2.67;;;1.90;;
10471;SDS011;5283;48.876;8.962;2023-04-03T00:17:44;2.97;;;2.00;;
10471;SDS011;5283;48.876;8.962;2023-04-03T00:20:11;2.20;;;2.00;;
10471;SDS011;5283;48.876;8.962;2023-04-03T00:22:38;2.77;;;2.10;;
10471;SDS011;5283;48.876;8.962;2023-04-03T00:25:06;2.10;;;1.80;;
10471;SDS011;5283;48.876;8.962;2023-04-03T00:27:33;4.77;;;2.03;;
10471;SDS011;5283;48.876;8.962;2023-04-03T00:30:02;2.43;;;2.23;;
10471;SDS011;5283;48.876;8.962;2023-04-03T00:32:28;2.77;;;1.80;;
10471;SDS011;5283;48.876;8.962;2023-04-03T00:34:55;2.20;;;1.97;;
10471;SDS011;5283;48.876;8.962;2023-04-03T00:37:22;2.53;;;2.00;;
10471;SDS011;5283;48.876;8.962;2023-04-03T00:39:48;3.87;;;2.20;;
10471;SDS011;5283;48.876;8.962;2023-04-03T00:42:15;3.20;;;2.40;;
10471;SDS011;5283;48.876;8.962;2023-04-03T00:47:11;3.43;;;2.43;;
10471;SDS011;5283;48.876;8.962;2023-04-03T00:49:39;3.60;;;2.53;;
10471;SDS011;5283;48.876;8.962;2023-04-03T00:52:07;3.30;;;2.63;;
10471;SDS011;5283;48.876;8.962;2023-04-03T00:54:39;6.57;;;4.03;;
10471;SDS011;5283;48.876;8.962;2023-04-03T00:57:08;3.93;;;3.13;;
10471;SDS011;5283;48.876;8.962;2023-04-03T00:59:37;2.30;;;2.07;;
10471;SDS011;5283;48.876;8.962;2023-04-03T01:02:07;2.40;;;2.20;;
10471;SDS011;5283;48.876;8.962;2023-04-03T01:04:38;3.13;;;2.23;;
10471;SDS011;5283;48.876;8.962;2023-04-03T01:07:11;4.00;;;2.20;;
10471;SDS011;5283;48.876;8.962;2023-04-03T01:09:48;6.63;;;2.63;;
10471;SDS011;5283;48.876;8.962;2023-04-03T01:12:20;7.70;;;5.03;;
10471;SDS011;5283;48.876;8.962;2023-04-03T01:14:58;4.33;;;3.30;;
10471;SDS011;5283;48.876;8.962;2023-04-03T01:17:34;5.20;;;3.40;;
10471;SDS011;5283;48.876;8.962;2023-04-03T01:25:35;6.00;;;3.33;;
10471;SDS011;5283;48.876;8.962;2023-04-03T01:28:03;4.00;;;3.23;;
10471;SDS011;5283;48.876;8.962;2023-04-03T01:30:35;4.50;;;3.50;;
10471;SDS011;5283;48.876;8.962;2023-04-03T01:33:11;3.47;;;2.70;;
10471;SDS011;5283;48.876;8.962;2023-04-03T01:35:38;4.60;;;2.83;;
10471;SDS011;5283;48.876;8.962;2023-04-03T01:38:05;5.37;;;3.43;;
10471;SDS011;5283;48.876;8.962;2023-04-03T01:40:32;5.57;;;3.40;;
10471;SDS011;5283;48.876;8.962;2023-04-03T01:42:59;3.73;;;2.90;;
10471;SDS011;5283;48.876;8.962;2023-04-03T01:45:26;3.53;;;3.23;;
10471;SDS011;5283;48.876;8.962;2023-04-03T01:47:53;3.97;;;3.40;;
10471;SDS011;5283;48.876;8.962;2023-04-03T01:50:20;3.83;;;2.90;;
10471;SDS011;5283;48.876;8.962;2023-04-03T01:52:47;5.93;;;3.93;;
10471;SDS011;5283;48.876;8.962;2023-04-03T01:55:13;5.63;;;3.80;;
10471;SDS011;5283;48.876;8.962;2023-04-03T01:57:41;5.73;;;3.40;;
10471;SDS011;5283;48.876;8.962;2023-04-03T02:00:07;3.63;;;3.13;;
10471;SDS011;5283;48.876;8.962;2023-04-03T02:02:35;5.30;;;3.80;;
10471;SDS011;5283;48.876;8.962;2023-04-03T02:05:02;4.33;;;3.80;;
10471;SDS011;5283;48.876;8.962;2023-04-03T02:07:28;4.87;;;3.00;;
10471;SDS011;5283;48.876;8.962;2023-04-03T02:09:55;4.40;;;3.20;;
10471;SDS011;5283;48.876;8.962;2023-04-03T02:12:22;4.53;;;3.30;;
10471;SDS011;5283;48.876;8.962;2023-04-03T02:14:49;4.50;;;3.43;;
10471;SDS011;5283;48.876;8.962;2023-04-03T02:17:15;5.23;;;3.40;;
10471;SDS011;5283;48.876;8.962;2023-04-03T02:19:42;3.83;;;3.03;;
10471;SDS011;5283;48.876;8.962;2023-04-03T02:22:09;4.23;;;3.23;;
10471;SDS011;5283;48.876;8.962;2023-04-03T02:24:36;4.60;;;3.03;;
10471;SDS011;5283;48.876;8.962;2023-04-03T02:27:05;5.43;;;3.40;;
10471;SDS011;5283;48.876;8.962;2023-04-03T02:29:31;5.07;;;3.40;;
10471;SDS011;5283;48.876;8.962;2023-04-03T02:31:58;5.27;;;3.40;;
10471;SDS011;5283;48.876;8.962;2023-04-03T02:34:25;4.03;;;2.97;;
10471;SDS011;5283;48.876;8.962;2023-04-03T02:36:51;3.80;;;2.73;;
10471;SDS011;5283;48.876;8.962;2023-04-03T02:39:18;7.87;;;3.63;;
10471;SDS011;5283;48.876;8.962;2023-04-03T02:41:45;4.80;;;3.07;;
10471;SDS011;5283;48.876;8.962;2023-04-03T02:44:12;6.80;;;4.20;;
10471;SDS011;5283;48.876;8.962;2023-04-03T02:46:38;6.40;;;3.73;;
10471;SDS011;5283;48.876;8.962;2023-04-03T02:49:05;5.70;;;3.80;;
10471;SDS011;5283;48.876;8.962;2023-04-03T02:51:32;7.83;;;4.07;;
10471;SDS011;5283;48.876;8.962;2023-04-03T02:53:59;5.03;;;3.40;;
10471;SDS011;5283;48.876;8.962;2023-04-03T02:56:26;4.53;;;3.30;;
10471;SDS011;5283;48.876;8.962;2023-04-03T02:58:53;3.67;;;2.83;;
10471;SDS011;5283;48.876;8.962;2023-04-03T03:01:19;7.53;;;4.70;;
10471;SDS011;5283;48.876;8.962;2023-04-03T03:03:46;6.37;;;4.57;;
10471;SDS011;5283;48.876;8.962;2023-04-03T03:06:14;6.17;;;3.60;;
10471;SDS011;5283;48.876;8.962;2023-04-03T03:08:42;2.80;;;2.57;;
10471;SDS011;5283;48.876;8.962;2023-04-03T03:11:09;5.57;;;2.70;;
10471;SDS011;5283;48.876;8.962;2023-04-03T03:13:37;6.93;;;2.90;;
10471;SDS011;5283;48.876;8.962;2023-04-03T03:16:04;3.13;;;2.27;;
10471;SDS011;5283;48.876;8.962;2023-04-03T03:18:31;4.40;;;2.57;;
10471;SDS011;5283;48.876;8.962;2023-04-03T03:20:58;2.80;;;2.53;;
10471;SDS011;5283;48.876;8.962;2023-04-03T03:23:27;3.07;;;2.73;;
10471;SDS011;5283;48.876;8.962;2023-04-03T03:25:55;3.17;;;2.53;;
10471;SDS011;5283;48.876;8.962;2023-04-03T03:28:27;2.70;;;2.40;;
10471;SDS011;5283;48.876;8.962;2023-04-03T03:30:54;3.70;;;2.40;;
10471;SDS011;5283;48.876;8.962;2023-04-03T03:33:21;6.77;;;4.17;;
10471;SDS011;5283;48.876;8.962;2023-04-03T03:35:48;2.33;;;2.13;;
10471;SDS011;5283;48.876;8.962;2023-04-03T03:38:15;3.30;;;2.50;;
10471;SDS011;5283;48.876;8.962;2023-04-03T03:40:42;2.20;;;1.90;;
10471;SDS011;5283;48.876;8.962;2023-04-03T03:43:09;2.90;;;2.27;;
10471;SDS011;5283;48.876;8.962;2023-04-03T03:45:36;3.60;;;1.93;;
10471;SDS011;5283;48.876;8.962;2023-04-03T03:48:02;2.57;;;1.90;;
10471;SDS011;5283;48.876;8.962;2023-04-03T03:50:29;4.57;;;2.40;;
10471;SDS011;5283;48.876;8.962;2023-04-03T03:52:56;2.17;;;1.97;;
10471;SDS011;5283;48.876;8.962;2023-04-03T03:55:23;2.17;;;1.97;;
10471;SDS011;5283;48.876;8.962;2023-04-03T03:57:50;2.37;;;1.70;;
10471;SDS011;5283;48.876;8.962;2023-04-03T04:00:16;2.60;;;2.20;;
10471;SDS011;5283;48.876;8.962;2023-04-03T04:02:43;2.27;;;2.00;;
10471;SDS011;5283;48.876;8.962;2023-04-03T04:05:10;2.20;;;2.00;;
10471;SDS011;5283;48.876;8.962;2023-04-03T04:07:37;2.70;;;2.20;;
10471;SDS011;5283;48.876;8.962;2023-04-03T04:10:04;2.43;;;2.10;;
10471;SDS011;5283;48.876;8.962;2023-04-03T04:12:31;2.03;;;1.83;;
10471;SDS011;5283;48.876;8.962;2023-04-03T04:14:58;3.70;;;2.80;;
10471;SDS011;5283;48.876;8.962;2023-04-03T04:17:24;3.60;;;2.50;;
10471;SDS011;5283;48.876;8.962;2023-04-03T04:19:51;4.17;;;2.57;;
10471;SDS011;5283;48.876;8.962;2023-04-03T04:22:18;5.20;;;3.23;;
10471;SDS011;5283;48.876;8.962;2023-04-03T04:24:44;4.13;;;2.47;;
10471;SDS011;5283;48.876;8.962;2023-04-03T04:27:11;3.40;;;2.50;;
10471;SDS011;5283;48.876;8.962;2023-04-03T04:29:38;4.40;;;2.50;;
10471;SDS011;5283;48.876;8.962;2023-04-03T04:32:04;3.30;;;2.30;;
10471;SDS011;5283;48.876;8.962;2023-04-03T04:34:31;2.60;;;2.20;;
10471;SDS011;5283;48.876;8.962;2023-04-03T04:36:58;2.30;;;1.93;;
10471;SDS011;5283;48.876;8.962;2023-04-03T04:39:24;2.77;;;2.50;;
10471;SDS011;5283;48.876;8.962;2023-04-03T04:41:51;2.40;;;2.20;;
10471;SDS011;5283;48.876;8.962;2023-04-03T04:44:18;2.40;;;1.80;;
10471;SDS011;5283;48.876;8.962;2023-04-03T04:46:46;2.33;;;2.13;;
10471;SDS011;5283;48.876;8.962;2023-04-03T04:49:12;2.70;;;2.50;;
10471;SDS011;5283;48.876;8.962;2023-04-03T04:51:39;2.50;;;2.30;;
10471;SDS011;5283;48.876;8.962;2023-04-03T04:54:09;4.17;;;2.40;;
10471;SDS011;5283;48.876;8.962;2023-04-03T04:56:36;3.37;;;2.40;;
10471;SDS011;5283;48.876;8.962;2023-04-03T04:59:03;4.17;;;2.60;;
10471;SDS011;5283;48.876;8.962;2023-04-03T05:01:30;3.73;;;2.70;;
10471;SDS011;5283;48.876;8.962;2023-04-03T05:03:56;5.27;;;2.40;;
10471;SDS011;5283;48.876;8.962;2023-04-03T05:06:23;2.70;;;2.10;;
10471;SDS011;5283;48.876;8.962;2023-04-03T05:08:49;2.40;;;2.20;;
10471;SDS011;5283;48.876;8.962;2023-04-03T05:11:16;3.27;;;2.27;;
10471;SDS011;5283;48.876;8.962;2023-04-03T05:13:43;2.57;;;2.03;;
10471;SDS011;5283;48.876;8.962;2023-04-03T05:16:09;2.80;;;2.00;;
10471;SDS011;5283;48.876;8.962;2023-04-03T05:18:37;2.27;;;1.93;;
10471;SDS011;5283;48.876;8.962;2023-04-03T05:21:04;2.70;;;2.10;;
10471;SDS011;5283;48.876;8.962;2023-04-03T05:23:30;3.17;;;2.07;;
10471;SDS011;5283;48.876;8.962;2023-04-03T05:25:57;2.23;;;2.00;;
10471;SDS011;5283;48.876;8.962;2023-04-03T05:28:24;2.60;;;2.10;;
10471;SDS011;5283;48.876;8.962;2023-04-03T05:30:54;2.37;;;1.80;;
10471;SDS011;5283;48.876;8.962;2023-04-03T05:33:22;2.10;;;1.90;;
10471;SDS011;5283;48.876;8.962;2023-04-03T05:35:49;2.23;;;2.03;;
10471;SDS011;5283;48.876;8.962;2023-04-03T05:38:16;5.63;;;2.70;;
10471;SDS011;5283;48.876;8.962;2023-04-03T05:40:43;3.70;;;2.43;;
10471;SDS011;5283;48.876;8.962;2023-04-03T05:43:10;2.90;;;2.60;;
10471;SDS011;5283;48.876;8.962;2023-04-03T05:45:36;5.70;;;2.30;;
10471;SDS011;5283;48.876;8.962;2023-04-03T05:48:03;3.00;;;2.70;;
10471;SDS011;5283;48.876;8.962;2023-04-03T05:50:30;5.07;;;2.77;;
10471;SDS011;5283;48.876;8.962;2023-04-03T05:52:57;2.83;;;2.53;;
10471;SDS011;5283;48.876;8.962;2023-04-03T05:55:25;3.20;;;2.70;;
10471;SDS011;5283;48.876;8.962;2023-04-03T05:57:52;3.03;;;2.43;;
10471;SDS011;5283;48.876;8.962;2023-04-03T06:00:19;2.20;;;2.00;;
10471;SDS011;5283;48.876;8.962;2023-04-03T06:02:47;3.50;;;2.30;;
10471;SDS011;5283;48.876;8.962;2023-04-03T06:05:14;3.57;;;2.47;;
10471;SDS011;5283;48.876;8.962;2023-04-03T06:07:40;2.30;;;2.10;;
10471;SDS011;5283;48.876;8.962;2023-04-03T06:10:07;3.70;;;2.50;;
10471;SDS011;5283;48.876;8.962;2023-04-03T06:12:34;3.70;;;2.27;;
10471;SDS011;5283;48.876;8.962;2023-04-03T06:15:02;4.43;;;2.90;;
10471;SDS011;5283;48.876;8.962;2023-04-03T06:17:29;2.80;;;2.47;;
10471;SDS011;5283;48.876;8.962;2023-04-03T06:19:56;3.30;;;2.20;;
10471;SDS011;5283;48.876;8.962;2023-04-03T06:22:24;2.40;;;2.20;;
10471;SDS011;5283;48.876;8.962;2023-04-03T06:24:51;3.73;;;2.53;;
10471;SDS011;5283;48.876;8.962;2023-04-03T06:27:18;5.17;;;2.83;;
10471;SDS011;5283;48.876;8.962;2023-04-03T06:29:45;4.93;;;2.63;;
10471;SDS011;5283;48.876;8.962;2023-04-03T06:32:11;8.07;;;3.33;;
10471;SDS011;5283;48.876;8.962;2023-04-03T06:34:38;2.30;;;2.10;;
10471;SDS011;5283;48.876;8.962;2023-04-03T06:37:05;2.43;;;2.23;;
10471;SDS011;5283;48.876;8.962;2023-04-03T06:39:32;4.90;;;2.83;;
10471;SDS011;5283;48.876;8.962;2023-04-03T06:41:59;4.30;;;2.50;;
10471;SDS011;5283;48.876;8.962;2023-04-03T06:44:26;3.67;;;2.30;;
10471;SDS011;5283;48.876;8.962;2023-04-03T06:46:52;5.03;;;2.53;;
10471;SDS011;5283;48.876;8.962;2023-04-03T06:49:20;3.27;;;2.37;;
10471;SDS011;5283;48.876;8.962;2023-04-03T06:51:47;2.73;;;2.10;;
10471;SDS011;5283;48.876;8.962;2023-04-03T06:54:14;4.83;;;2.33;;
10471;SDS011;5283;48.876;8.962;2023-04-03T06:56:41;2.70;;;1.90;;
10471;SDS011;5283;48.876;8.962;2023-04-03T06:59:07;3.50;;;2.40;;
10471;SDS011;5283;48.876;8.962;2023-04-03T07:01:35;2.33;;;2.00;;
10471;SDS011;5283;48.876;8.962;2023-04-03T07:04:02;2.30;;;2.10;;
10471;SDS011;5283;48.876;8.962;2023-04-03T07:06:29;3.90;;;2.20;;
10471;SDS011;5283;48.876;8.962;2023-04-03T07:08:57;2.77;;;1.83;;
10471;SDS011;5283;48.876;8.962;2023-04-03T07:11:23;4.80;;;2.10;;
10471;SDS011;5283;48.876;8.962;2023-04-03T07:13:50;3.53;;;2.60;;
10471;SDS011;5283;48.876;8.962;2023-04-03T07:16:17;2.20;;;2.10;;
10471;SDS011;5283;48.876;8.962;2023-04-03T07:18:44;2.97;;;2.13;;
10471;SDS011;5283;48.876;8.962;2023-04-03T07:21:12;3.03;;;2.07;;
10471;SDS011;5283;48.876;8.962;2023-04-03T07:23:39;3.60;;;2.50;;
10471;SDS011;5283;48.876;8.962;2023-04-03T07:26:06;3.97;;;2.17;;
10471;SDS011;5283;48.876;8.962;2023-04-03T07:28:34;3.63;;;2.30;;
10471;SDS011;5283;48.876;8.962;2023-04-03T07:31:05;2.20;;;2.00;;
10471;SDS011;5283;48.876;8.962;2023-04-03T07:33:34;2.27;;;2.07;;
10471;SDS011;5283;48.876;8.962;2023-04-03T07:36:01;2.20;;;2.00;;
10471;SDS011;5283;48.876;8.962;2023-04-03T07:38:29;3.33;;;2.30;;
10471;SDS011;5283;48.876;8.962;2023-04-03T07:40:55;4.60;;;2.53;;
10471;SDS011;5283;48.876;8.962;2023-04-03T07:43:22;3.60;;;1.77;;
10471;SDS011;5283;48.876;8.962;2023-04-03T07:45:51;1.97;;;1.77;;
10471;SDS011;5283;48.876;8.962;2023-04-03T07:48:18;3.10;;;2.07;;
10471;SDS011;5283;48.876;8.962;2023-04-03T07:50:47;4.20;;;2.13;;
10471;SDS011;5283;48.876;8.962;2023-04-03T07:53:14;3.90;;;2.40;;
10471;SDS011;5283;48.876;8.962;2023-04-03T07:55:41;2.10;;;1.90;;
10471;SDS011;5283;48.876;8.962;2023-04-03T07:58:11;3.37;;;2.30;;
10471;SDS011;5283;48.876;8.962;2023-04-03T08:00:40;2.57;;;2.20;;
10471;SDS011;5283;48.876;8.962;2023-04-03T08:03:09;2.03;;;1.83;;
10471;SDS011;5283;48.876;8.962;2023-04-03T08:05:40;3.27;;;1.93;;
10471;SDS011;5283;48.876;8.962;2023-04-03T08:08:09;3.60;;;2.40;;
10471;SDS011;5283;48.876;8.962;2023-04-03T08:10:37;3.17;;;2.37;;
10471;SDS011;5283;48.876;8.962;2023-04-03T08:13:06;3.40;;;2.20;;
10471;SDS011;5283;48.876;8.962;2023-04-03T08:15:34;2.13;;;1.90;;
10471;SDS011;5283;48.876;8.962;2023-04-03T08:18:02;4.77;;;2.30;;
10471;SDS011;5283;48.876;8.962;2023-04-03T08:20:28;3.43;;;2.50;;
10471;SDS011;5283;48.876;8.962;2023-04-03T08:22:55;3.10;;;2.23;;
10471;SDS011;5283;48.876;8.962;2023-04-03T08:25:22;3.43;;;2.30;;
10471;SDS011;5283;48.876;8.962;2023-04-03T08:27:48;3.73;;;2.37;;
10471;SDS011;5283;48.876;8.962;2023-04-03T08:30:15;4.57;;;2.10;;
10471;SDS011;5283;48.876;8.962;2023-04-03T08:32:42;3.57;;;2.30;;
10471;SDS011;5283;48.876;8.962;2023-04-03T08:35:10;3.47;;;2.37;;
10471;SDS011;5283;48.876;8.962;2023-04-03T08:37:38;3.47;;;2.13;;
10471;SDS011;5283;48.876;8.962;2023-04-03T08:40:06;3.43;;;2.50;;
10471;SDS011;5283;48.876;8.962;2023-04-03T08:45:51;5.17;;;2.10;;
10471;SDS011;5283;48.876;8.962;2023-04-03T08:48:24;4.50;;;2.57;;
10471;SDS011;5283;48.876;8.962;2023-04-03T08:50:57;3.13;;;2.40;;
10471;SDS011;5283;48.876;8.962;2023-04-03T08:53:28;3.23;;;2.03;;
10471;SDS011;5283;48.876;8.962;2023-04-03T08:55:58;4.37;;;2.17;;
10471;SDS011;5283;48.876;8.962;2023-04-03T08:58:32;4.60;;;2.27;;
10471;SDS011;5283;48.876;8.962;2023-04-03T09:01:23;3.67;;;1.93;;
10471;SDS011;5283;48.876;8.962;2023-04-03T09:04:02;4.07;;;2.30;;
10471;SDS011;5283;48.876;8.962;2023-04-03T09:06:36;3.67;;;2.03;;
10471;SDS011;5283;48.876;8.962;2023-04-03T09:09:07;5.20;;;2.30;;
10471;SDS011;5283;48.876;8.962;2023-04-03T09:17:03;2.40;;;2.20;;
10471;SDS011;5283;48.876;8.962;2023-04-03T09:19:52;2.30;;;2.10;;
10471;SDS011;5283;48.876;8.962;2023-04-03T09:22:27;3.37;;;2.30;;
10471;SDS011;5283;48.876;8.962;2023-04-03T09:25:13;2.60;;;2.00;;
10471;SDS011;5283;48.876;8.962;2023-04-03T09:27:46;3.23;;;2.17;;
10471;SDS011;5283;48.876;8.962;2023-04-03T09:30:23;4.47;;;2.30;;
10471;SDS011;5283;48.876;8.962;2023-04-03T09:32:53;3.43;;;1.93;;
10471;SDS011;5283;48.876;8.962;2023-04-03T09:35:25;3.37;;;2.00;;
10471;SDS011;5283;48.876;8.962;2023-04-03T09:40:43;4.10;;;2.10;;
10471;SDS011;5283;48.876;8.962;2023-04-03T09:43:37;2.37;;;1.87;;
10471;SDS011;5283;48.876;8.962;2023-04-03T09:48:59;3.57;;;2.13;;
10471;SDS011;5283;48.876;8.962;2023-04-03T09:51:33;4.30;;;2.13;;
10471;SDS011;5283;48.876;8.962;2023-04-03T09:53:59;4.83;;;2.10;;
10471;SDS011;5283;48.876;8.962;2023-04-03T09:56:27;2.37;;;1.90;;
10471;SDS011;5283;48.876;8.962;2023-04-03T10:04:03;3.83;;;2.10;;
10471;SDS011;5283;48.876;8.962;2023-04-03T10:09:24;2.90;;;1.87;;
10471;SDS011;5283;48.876;8.962;2023-04-03T10:12:11;4.03;;;2.00;;
10471;SDS011;5283;48.876;8.962;2023-04-03T10:14:53;3.13;;;1.97;;
10471;SDS011;5283;48.876;8.962;2023-04-03T10:20:24;2.07;;;1.77;;
10471;SDS011;5283;48.876;8.962;2023-04-03T10:25:43;3.07;;;1.90;;
10471;SDS011;5283;48.876;8.962;2023-04-03T10:31:15;3.87;;;1.97;;
10471;SDS011;5283;48.876;8.962;2023-04-03T10:34:20;3.47;;;2.00;;
10471;SDS011;5283;48.876;8.962;2023-04-03T10:39:23;2.53;;;1.77;;
10471;SDS011;5283;48.876;8.962;2023-04-03T10:42:15;3.87;;;1.80;;
10471;SDS011;5283;48.876;8.962;2023-04-03T10:53:24;2.10;;;1.90;;
10471;SDS011;5283;48.876;8.962;2023-04-03T11:01:45;5.40;;;1.70;;
10471;SDS011;5283;48.876;8.962;2023-04-03T11:04:17;1.97;;;1.70;;
10471;SDS011;5283;48.876;8.962;2023-04-03T11:06:49;3.10;;;1.93;;
10471;SDS011;5283;48.876;8.962;2023-04-03T11:09:26;2.93;;;1.70;;
10471;SDS011;5283;48.876;8.962;2023-04-03T11:12:02;3.83;;;2.17;;
10471;SDS011;5283;48.876;8.962;2023-04-03T11:14:35;3.47;;;1.83;;
10471;SDS011;5283;48.876;8.962;2023-04-03T11:19:34;3.87;;;1.60;;
10471;SDS011;5283;48.876;8.962;2023-04-03T11:27:43;2.60;;;1.57;;
10471;SDS011;5283;48.876;8.962;2023-04-03T11:32:54;5.93;;;2.10;;
10471;SDS011;5283;48.876;8.962;2023-04-03T11:35:47;1.87;;;1.40;;
10471;SDS011;5283;48.876;8.962;2023-04-03T11:38:19;2.50;;;1.70;;
10471;SDS011;5283;48.876;8.962;2023-04-03T11:40:50;2.47;;;1.57;;
10471;SDS011;5283;48.876;8.962;2023-04-03T11:43:21;1.77;;;1.47;;
10471;SDS011;5283;48.876;8.962;2023-04-03T11:50:55;4.77;;;1.50;;
10471;SDS011;5283;48.876;8.962;2023-04-03T11:53:26;3.73;;;1.60;;
10471;SDS011;5283;48.876;8.962;2023-04-03T11:56:00;2.03;;;1.50;;
10471;SDS011;5283;48.876;8.962;2023-04-03T12:01:48;3.23;;;1.93;;
10471;SDS011;5283;48.876;8.962;2023-04-03T12:04:16;3.00;;;1.60;;
10471;SDS011;5283;48.876;8.962;2023-04-03T12:11:54;2.20;;;1.80;;
10471;SDS011;5283;48.876;8.962;2023-04-03T12:14:23;3.50;;;1.50;;
10471;SDS011;5283;48.876;8.962;2023-04-03T12:16:52;2.33;;;1.63;;
10471;SDS011;5283;48.876;8.962;2023-04-03T12:22:05;1.90;;;1.33;;
10471;SDS011;5283;48.876;8.962;2023-04-03T12:24:34;2.83;;;1.80;;
10471;SDS011;5283;48.876;8.962;2023-04-03T12:27:25;2.70;;;1.67;;
10471;SDS011;5283;48.876;8.962;2023-04-03T12:35:36;2.03;;;1.40;;
10471;SDS011;5283;48.876;8.962;2023-04-03T12:41:15;2.20;;;1.40;;
10471;SDS011;5283;48.876;8.962;2023-04-03T12:46:38;3.33;;;1.73;;
10471;SDS011;5283;48.876;8.962;2023-04-03T12:49:20;2.73;;;2.10;;
10471;SDS011;5283;48.876;8.962;2023-04-03T12:51:56;2.40;;;1.60;;
10471;SDS011;5283;48.876;8.962;2023-04-03T12:54:35;3.57;;;1.47;;
10471;SDS011;5283;48.876;8.962;2023-04-03T12:57:19;2.77;;;2.20;;
10471;SDS011;5283;48.876;8.962;2023-04-03T12:59:53;3.70;;;1.83;;
10471;SDS011;5283;48.876;8.962;2023-04-03T13:02:22;2.23;;;1.80;;
10471;SDS011;5283;48.876;8.962;2023-04-03T13:04:50;2.70;;;2.13;;
10471;SDS011;5283;48.876;8.962;2023-04-03T13:07:28;2.17;;;1.30;;
10471;SDS011;5283;48.876;8.962;2023-04-03T13:10:01;2.87;;;1.47;;
10471;SDS011;5283;48.876;8.962;2023-04-03T13:12:55;3.23;;;1.53;;
10471;SDS011;5283;48.876;8.962;2023-04-03T13:15:30;3.20;;;1.63;;
10471;SDS011;5283;48.876;8.962;2023-04-03T13:21:11;2.70;;;1.60;;
10471;SDS011;5283;48.876;8.962;2023-04-03T13:23:44;2.40;;;1.40;;
10471;SDS011;5283;48.876;8.962;2023-04-03T13:26:15;2.73;;;1.33;;
10471;SDS011;5283;48.876;8.962;2023-04-03T13:28:44;2.07;;;1.57;;
10471;SDS011;5283;48.876;8.962;2023-04-03T13:33:43;3.57;;;1.40;;
10471;SDS011;5283;48.876;8.962;2023-04-03T13:36:36;1.73;;;1.30;;
10471;SDS011;5283;48.876;8.962;2023-04-03T13:39:06;3.30;;;1.73;;
10471;SDS011;5283;48.876;8.962;2023-04-03T13:41:55;4.43;;;1.67;;
10471;SDS011;5283;48.876;8.962;2023-04-03T13:44:49;2.00;;;1.63;;
10471;SDS011;5283;48.876;8.962;2023-04-03T13:47:39;1.80;;;1.40;;
10471;SDS011;5283;48.876;8.962;2023-04-03T13:50:23;3.47;;;1.63;;
10471;SDS011;5283;48.876;8.962;2023-04-03T13:52:52;3.30;;;1.70;;
10471;SDS011;5283;48.876;8.962;2023-04-03T13:55:29;3.37;;;2.03;;
10471;SDS011;5283;48.876;8.962;2023-04-03T13:58:00;1.97;;;1.77;;
10471;SDS011;5283;48.876;8.962;2023-04-03T14:03:26;2.47;;;1.53;;
10471;SDS011;5283;48.876;8.962;2023-04-03T14:05:57;2.77;;;1.67;;
10471;SDS011;5283;48.876;8.962;2023-04-03T14:08:25;2.70;;;1.57;;
10471;SDS011;5283;48.876;8.962;2023-04-03T14:10:57;4.03;;;1.70;;
10471;SDS011;5283;48.876;8.962;2023-04-03T14:13:24;5.33;;;1.77;;
10471;SDS011;5283;48.876;8.962;2023-04-03T14:15:51;4.67;;;1.87;;
10471;SDS011;5283;48.876;8.962;2023-04-03T14:18:18;2.20;;;1.50;;
10471;SDS011;5283;48.876;8.962;2023-04-03T14:20:47;2.60;;;1.60;;
10471;SDS011;5283;48.876;8.962;2023-04-03T14:23:14;2.57;;;1.60;;
10471;SDS011;5283;48.876;8.962;2023-04-03T14:25:41;2.50;;;1.87;;
10471;SDS011;5283;48.876;8.962;2023-04-03T14:28:16;2.17;;;1.97;;
10471;SDS011;5283;48.876;8.962;2023-04-03T14:30:49;2.27;;;1.30;;
10471;SDS011;5283;48.876;8.962;2023-04-03T14:33:19;2.83;;;2.00;;
10471;SDS011;5283;48.876;8.962;2023-04-03T14:35:47;1.67;;;1.30;;
10471;SDS011;5283;48.876;8.962;2023-04-03T14:38:20;2.57;;;1.70;;
10471;SDS011;5283;48.876;8.962;2023-04-03T14:40:49;2.53;;;1.60;;
10471;SDS011;5283;48.876;8.962;2023-04-03T14:43:16;2.63;;;1.10;;
10471;SDS011;5283;48.876;8.962;2023-04-03T14:45:43;3.10;;;1.40;;
10471;SDS011;5283;48.876;8.962;2023-04-03T14:48:15;2.37;;;1.53;;
10471;SDS011;5283;48.876;8.962;2023-04-03T14:50:48;3.17;;;1.47;;
10471;SDS011;5283;48.876;8.962;2023-04-03T14:53:23;6.03;;;2.03;;
10471;SDS011;5283;48.876;8.962;2023-04-03T14:55:57;2.90;;;1.93;;
10471;SDS011;5283;48.876;8.962;2023-04-03T14:58:24;2.67;;;1.60;;
10471;SDS011;5283;48.876;8.962;2023-04-03T15:00:51;4.40;;;2.00;;
10471;SDS011;5283;48.876;8.962;2023-04-03T15:03:18;2.87;;;2.03;;
10471;SDS011;5283;48.876;8.962;2023-04-03T15:05:47;1.97;;;1.77;;
10471;SDS011;5283;48.876;8.962;2023-04-03T15:08:19;5.13;;;2.60;;
10471;SDS011;5283;48.876;8.962;2023-04-03T15:10:49;4.17;;;2.23;;
10471;SDS011;5283;48.876;8.962;2023-04-03T15:13:19;2.90;;;1.80;;
10471;SDS011;5283;48.876;8.962;2023-04-03T15:15:46;1.97;;;1.50;;
10471;SDS011;5283;48.876;8.962;2023-04-03T15:18:15;3.33;;;2.20;;
10471;SDS011;5283;48.876;8.962;2023-04-03T15:20:46;4.07;;;2.83;;
10471;SDS011;5283;48.876;8.962;2023-04-03T15:23:13;5.17;;;2.40;;
10471;SDS011;5283;48.876;8.962;2023-04-03T15:25:42;3.13;;;1.97;;
10471;SDS011;5283;48.876;8.962;2023-04-03T15:28:22;3.73;;;2.50;;
10471;SDS011;5283;48.876;8.962;2023-04-03T15:30:53;1.43;;;1.33;;
10471;SDS011;5283;48.876;8.962;2023-04-03T15:33:20;5.20;;;3.23;;
10471;SDS011;5283;48.876;8.962;2023-04-03T15:35:48;4.40;;;3.00;;
10471;SDS011;5283;48.876;8.962;2023-04-03T15:38:14;2.97;;;2.40;;
10471;SDS011;5283;48.876;8.962;2023-04-03T15:40:41;3.50;;;2.20;;
10471;SDS011;5283;48.876;8.962;2023-04-03T15:43:09;2.90;;;1.80;;
10471;SDS011;5283;48.876;8.962;2023-04-03T15:45:36;3.97;;;1.90;;
10471;SDS011;5283;48.876;8.962;2023-04-03T15:48:04;3.13;;;1.60;;
10471;SDS011;5283;48.876;8.962;2023-04-03T15:50:32;1.93;;;1.60;;
10471;SDS011;5283;48.876;8.962;2023-04-03T15:53:00;3.73;;;1.70;;
10471;SDS011;5283;48.876;8.962;2023-04-03T15:55:28;3.17;;;2.20;;
10471;SDS011;5283;48.876;8.962;2023-04-03T15:57:57;4.67;;;2.20;;
10471;SDS011;5283;48.876;8.962;2023-04-03T16:00:25;3.40;;;2.10;;
10471;SDS011;5283;48.876;8.962;2023-04-03T16:02:53;2.93;;;2.00;;
10471;SDS011;5283;48.876;8.962;2023-04-03T16:05:23;2.13;;;1.73;;
10471;SDS011;5283;48.876;8.962;2023-04-03T16:07:50;2.33;;;1.63;;
10471;SDS011;5283;48.876;8.962;2023-04-03T16:10:17;3.00;;;1.70;;
10471;SDS011;5283;48.876;8.962;2023-04-03T16:12:45;3.10;;;1.80;;
10471;SDS011;5283;48.876;8.962;2023-04-03T16:15:12;1.83;;;1.33;;
10471;SDS011;5283;48.876;8.962;2023-04-03T16:17:39;3.07;;;1.87;;
10471;SDS011;5283;48.876;8.962;2023-04-03T16:20:07;5.20;;;2.20;;
10471;SDS011;5283;48.876;8.962;2023-04-03T16:22:36;3.30;;;2.10;;
10471;SDS011;5283;48.876;8.962;2023-04-03T16:25:04;2.27;;;1.80;;
10471;SDS011;5283;48.876;8.962;2023-04-03T16:27:32;3.50;;;1.73;;
10471;SDS011;5283;48.876;8.962;2023-04-03T16:30:00;1.73;;;1.63;;
10471;SDS011;5283;48.876;8.962;2023-04-03T16:32:27;2.20;;;1.90;;
10471;SDS011;5283;48.876;8.962;2023-04-03T16:34:56;4.33;;;2.33;;
10471;SDS011;5283;48.876;8.962;2023-04-03T16:37:24;2.80;;;1.87;;
10471;SDS011;5283;48.876;8.962;2023-04-03T16:39:51;5.00;;;2.27;;
10471;SDS011;5283;48.876;8.962;2023-04-03T16:42:18;2.83;;;2.03;;
10471;SDS011;5283;48.876;8.962;2023-04-03T16:44:45;3.07;;;2.10;;
10471;SDS011;5283;48.876;8.962;2023-04-03T16:47:12;2.27;;;2.07;;
10471;SDS011;5283;48.876;8.962;2023-04-03T16:49:39;3.10;;;2.17;;
10471;SDS011;5283;48.876;8.962;2023-04-03T16:52:06;3.30;;;1.90;;
10471;SDS011;5283;48.876;8.962;2023-04-03T16:54:33;2.23;;;2.03;;
10471;SDS011;5283;48.876;8.962;2023-04-03T16:57:00;2.27;;;1.90;;